Terminal Aerodrome Forecast
Issued by NWS Louisville, KY

Home | Current Version | Previous Version | Text Only | Print | Product List | Glossary On
Versions: 1 2 3 4 5 6 7 8 9 10 11 12 13 14
064
FTUS43 KLMK 211437 AAA
TAFSDF
TAF AMD
KSDF 211437Z 2115/2218 03008KT 6SM HZ OVC013
     FM211600 03008KT P6SM BKN022
     FM211700 02008KT P6SM BKN150
     FM212100 36008KT P6SM BKN250=

USA.gov is the U.S. government's official web portal to all federal, state and local government web resources and services.